Time;durP1;ratioP1;P1;durP2;ratioP2;P2;SDS_P1;SDS_P2;PMS_P1;PMS_P2;Temp;Humidity;BMP_temperature;BMP_pressure;BME280_temperature;BME280_humidity;BME280_pressure;Samples;Min_cycle;Max_cycle;Signal;HPM_P1;HPM_P2
2021/10/12 00:09:34;;;;;;;10.05;6.35;;;;;;;;;;21336937;27;20046;-60
2021/10/12 00:19:37;;;;;;;7.38;4.70;;;;;;;;;;21337841;27;20043;-59
2021/10/12 00:29:39;;;;;;;7.18;4.55;;;;;;;;;;21336396;27;20096;-59
2021/10/12 00:39:41;;;;;;;9.13;4.28;;;;;;;;;;21335867;27;20129;-60
2021/10/12 00:49:43;;;;;;;8.77;5.28;;;;;;;;;;21334913;27;20078;-60
2021/10/12 00:59:46;;;;;;;7.13;4.75;;;;;;;;;;21334287;27;20054;-60
2021/10/12 01:09:48;;;;;;;6.18;4.07;;;;;;;;;;21333638;27;20047;-60
2021/10/12 01:19:53;;;;;;;9.80;5.18;;;;;;;;;;21333479;27;20126;-61
2021/10/12 01:29:55;;;;;;;7.43;4.28;;;;;;;;;;21332665;27;20050;-60
2021/10/12 01:39:58;;;;;;;7.82;4.50;;;;;;;;;;21333102;27;20047;-60
2021/10/12 01:50:03;;;;;;;6.55;4.30;;;;;;;;;;21332357;27;20502;-60
2021/10/12 02:00:06;;;;;;;5.45;4.50;;;;;;;;;;21331483;27;20080;-59
2021/10/12 02:10:09;;;;;;;7.50;4.60;;;;;;;;;;21331287;27;20043;-60
2021/10/12 02:20:12;;;;;;;7.75;4.82;;;;;;;;;;21331338;27;20391;-59
2021/10/12 02:30:15;;;;;;;7.50;4.55;;;;;;;;;;21336689;27;20042;-59
2021/10/12 02:40:18;;;;;;;7.65;4.30;;;;;;;;;;21345972;27;20039;-59
2021/10/12 02:50:21;;;;;;;6.00;4.63;;;;;;;;;;21344969;27;20051;-59
2021/10/12 03:00:23;;;;;;;5.57;4.43;;;;;;;;;;21343596;27;20399;-60
2021/10/12 03:10:26;;;;;;;7.10;4.80;;;;;;;;;;21344081;27;20500;-59
2021/10/12 03:20:30;;;;;;;6.27;4.80;;;;;;;;;;21342340;27;20487;-59
2021/10/12 03:30:33;;;;;;;6.47;4.43;;;;;;;;;;21341708;27;20050;-59
2021/10/12 03:40:37;;;;;;;7.10;4.63;;;;;;;;;;21340025;27;20050;-60
2021/10/12 03:50:39;;;;;;;6.95;4.50;;;;;;;;;;21339969;27;20392;-59
2021/10/12 04:00:41;;;;;;;6.20;4.15;;;;;;;;;;21338607;27;20126;-59
2021/10/12 04:10:45;;;;;;;4.73;4.23;;;;;;;;;;21338525;27;20475;-60
2021/10/12 04:20:48;;;;;;;5.93;4.68;;;;;;;;;;21337886;27;20050;-60
2021/10/12 04:30:52;;;;;;;6.72;4.25;;;;;;;;;;21336353;27;20086;-60
2021/10/12 04:40:54;;;;;;;5.53;4.28;;;;;;;;;;21336205;27;20458;-60
2021/10/12 04:50:59;;;;;;;7.30;4.65;;;;;;;;;;21335195;27;20586;-60
2021/10/12 05:01:01;;;;;;;7.90;5.07;;;;;;;;;;21334659;27;20047;-59
2021/10/12 05:11:04;;;;;;;5.90;4.15;;;;;;;;;;21334352;27;20080;-59
2021/10/12 05:21:05;;;;;;;6.10;4.60;;;;;;;;;;21333765;27;20753;-60
2021/10/12 05:31:06;;;;;;;6.32;4.82;;;;;;;;;;21334278;27;20059;-59
2021/10/12 05:41:08;;;;;;;5.82;4.40;;;;;;;;;;21332778;27;20058;-58
2021/10/12 05:51:10;;;;;;;6.68;4.90;;;;;;;;;;21332789;27;20046;-59
2021/10/12 06:01:13;;;;;;;6.57;4.20;;;;;;;;;;21314272;27;20494;-59
2021/10/12 06:11:15;;;;;;;7.40;4.13;;;;;;;;;;21349114;27;20050;-59
2021/10/12 06:21:17;;;;;;;6.15;4.25;;;;;;;;;;21347071;27;20049;-59
2021/10/12 06:31:20;;;;;;;7.47;4.80;;;;;;;;;;21346701;27;20046;-60
2021/10/12 06:41:23;;;;;;;7.65;4.93;;;;;;;;;;21346480;27;20087;-60
2021/10/12 06:51:25;;;;;;;8.38;5.22;;;;;;;;;;21344406;27;20053;-59
2021/10/12 07:01:28;;;;;;;7.35;5.00;;;;;;;;;;21343573;27;20057;-59
2021/10/12 07:11:30;;;;;;;6.43;4.78;;;;;;;;;;21343966;27;20083;-60
2021/10/12 07:21:32;;;;;;;11.13;6.03;;;;;;;;;;21342188;27;20074;-60
2021/10/12 07:31:35;;;;;;;7.45;5.32;;;;;;;;;;21341082;27;20042;-60
2021/10/12 07:41:38;;;;;;;9.32;5.32;;;;;;;;;;21340803;27;20070;-60
2021/10/12 07:51:41;;;;;;;12.93;8.13;;;;;;;;;;21340045;27;20487;-60
2021/10/12 08:01:43;;;;;;;10.45;7.03;;;;;;;;;;21339081;27;20051;-59
2021/10/12 08:11:46;;;;;;;10.85;6.88;;;;;;;;;;21337366;27;20129;-60
2021/10/12 08:21:48;;;;;;;12.32;6.97;;;;;;;;;;21337315;27;20406;-60
2021/10/12 08:31:51;;;;;;;10.40;7.85;;;;;;;;;;21335534;27;20058;-61
2021/10/12 08:41:55;;;;;;;10.02;8.13;;;;;;;;;;21335543;27;20043;-60
2021/10/12 08:51:57;;;;;;;9.98;8.15;;;;;;;;;;21334534;27;20046;-60
2021/10/12 09:02:06;;;;;;;9.98;7.60;;;;;;;;;;21334039;27;20050;-60
2021/10/12 09:12:08;;;;;;;8.80;7.65;;;;;;;;;;21333725;27;20051;-59
2021/10/12 09:22:10;;;;;;;8.30;6.63;;;;;;;;;;21333781;27;20046;-60
2021/10/12 09:32:13;;;;;;;10.93;8.55;;;;;;;;;;21332034;27;20065;-59
2021/10/12 09:42:18;;;;;;;10.63;6.50;;;;;;;;;;21326572;27;20138;-60
2021/10/12 09:52:21;;;;;;;9.47;6.60;;;;;;;;;;21349580;27;20047;-60
2021/10/12 10:02:24;;;;;;;8.73;7.40;;;;;;;;;;21347963;27;20056;-60
2021/10/12 10:12:27;;;;;;;7.53;6.25;;;;;;;;;;21347397;27;20606;-60
2021/10/12 10:22:36;;;;;;;9.32;6.47;;;;;;;;;;21347064;27;20478;-60
2021/10/12 10:32:46;;;;;;;8.10;5.82;;;;;;;;;;21346208;27;20049;-59
2021/10/12 10:43:06;;;;;;;7.40;5.47;;;;;;;;;;21326445;27;20050;-60
2021/10/12 10:53:10;;;;;;;5.97;4.40;;;;;;;;;;21344286;27;20469;-59
2021/10/12 11:03:36;;;;;;;7.60;4.97;;;;;;;;;;21343866;27;20059;-59
2021/10/12 11:13:40;;;;;;;8.15;4.95;;;;;;;;;;21343235;27;20049;-60
2021/10/12 11:23:49;;;;;;;8.50;4.70;;;;;;;;;;21341491;27;20174;-60
2021/10/12 11:33:53;;;;;;;6.18;5.20;;;;;;;;;;21340568;27;20264;-60
2021/10/12 11:43:57;;;;;;;5.60;4.80;;;;;;;;;;21342214;27;20419;-60
2021/10/12 11:54:02;;;;;;;7.32;3.92;;;;;;;;;;21338651;27;20042;-60
2021/10/12 12:04:05;;;;;;;7.28;4.20;;;;;;;;;;21332053;27;20050;-60
2021/10/12 12:14:07;;;;;;;10.20;7.22;;;;;;;;;;21338125;27;20043;-60
2021/10/12 12:24:17;;;;;;;5.55;4.38;;;;;;;;;;21337558;27;20050;-60
2021/10/12 12:34:28;;;;;;;5.43;4.00;;;;;;;;;;21336291;27;20049;-61
2021/10/12 12:44:33;;;;;;;5.07;4.30;;;;;;;;;;21336166;27;20055;-61
2021/10/12 12:54:48;;;;;;;7.07;4.03;;;;;;;;;;21334780;27;20051;-60
2021/10/12 13:04:50;;;;;;;6.47;4.43;;;;;;;;;;21334483;27;20054;-60
2021/10/12 13:14:53;;;;;;;7.00;4.40;;;;;;;;;;21333459;27;20043;-60
2021/10/12 13:24:58;;;;;;;6.22;4.30;;;;;;;;;;21333503;27;20053;-61
2021/10/12 13:35:00;;;;;;;5.73;5.10;;;;;;;;;;21332642;27;20054;-61
2021/10/12 13:45:03;;;;;;;7.65;4.97;;;;;;;;;;21332170;27;20075;-60
2021/10/12 13:55:06;;;;;;;;;;;;;;;;;;21333391;27;20049;-62
2021/10/12 14:05:08;;;;;;;9.15;5.93;;;;;;;;;;21331903;27;19926;-60
2021/10/12 14:15:13;;;;;;;;;;;;;;;;;;21331955;27;20486;-60
2021/10/12 14:25:15;;;;;;;4.82;4.18;;;;;;;;;;21336747;27;19945;-60
2021/10/12 14:35:18;;;;;;;8.38;3.85;;;;;;;;;;21328022;27;20080;-60
2021/10/12 14:45:21;;;;;;;6.68;4.13;;;;;;;;;;21343180;27;20099;-60
2021/10/12 14:55:23;;;;;;;7.85;5.75;;;;;;;;;;21342508;27;20049;-60
2021/10/12 15:05:26;;;;;;;5.87;4.00;;;;;;;;;;21341159;27;20055;-60
2021/10/12 15:15:28;;;;;;;6.72;5.53;;;;;;;;;;21340867;27;20129;-60
2021/10/12 15:25:31;;;;;;;6.70;4.07;;;;;;;;;;21340347;27;20192;-61
2021/10/12 15:35:34;;;;;;;3.80;3.40;;;;;;;;;;21339305;27;20474;-58
2021/10/12 15:45:37;;;;;;;;;;;;;;;;;;21338624;27;20046;-60
2021/10/12 15:55:39;;;;;;;5.70;3.65;;;;;;;;;;21337650;27;20395;-59
2021/10/12 16:05:40;;;;;;;7.45;4.90;;;;;;;;;;21336434;27;20566;-61
2021/10/12 16:26:04;;;;;;;5.03;3.90;;;;;;;;;;21334980;27;20051;-61
2021/10/12 16:36:07;;;;;;;6.17;4.03;;;;;;;;;;21333990;27;20074;-59
2021/10/12 16:46:10;;;;;;;6.73;4.10;;;;;;;;;;21332889;27;20486;-60
2021/10/12 16:56:12;;;;;;;4.47;4.07;;;;;;;;;;21330851;27;20131;-59
2021/10/12 17:06:14;;;;;;;6.57;4.90;;;;;;;;;;21246015;27;20062;-60
2021/10/12 17:16:17;;;;;;;7.23;5.20;;;;;;;;;;21246170;27;20407;-59
2021/10/12 17:26:21;;;;;;;10.75;8.45;;;;;;;;;;21245258;27;20051;-60
2021/10/12 17:36:23;;;;;;;17.65;13.50;;;;;;;;;;21245496;27;20051;-60
2021/10/12 17:46:26;;;;;;;14.05;10.77;;;;;;;;;;21244213;28;20092;-60
2021/10/12 17:56:28;;;;;;;12.20;8.45;;;;;;;;;;21247655;27;20171;-59
2021/10/12 18:06:30;;;;;;;10.23;8.50;;;;;;;;;;21345853;27;20097;-60
2021/10/12 18:16:32;;;;;;;13.43;10.13;;;;;;;;;;21345484;27;20074;-60
2021/10/12 18:26:36;;;;;;;15.05;10.02;;;;;;;;;;21344916;27;20129;-59
2021/10/12 18:36:39;;;;;;;14.70;9.32;;;;;;;;;;21343965;27;20046;-60
2021/10/12 18:46:41;;;;;;;14.50;8.90;;;;;;;;;;21342529;27;20043;-59
2021/10/12 18:56:43;;;;;;;15.18;8.57;;;;;;;;;;21342538;27;20156;-60
2021/10/12 19:06:46;;;;;;;13.63;8.30;;;;;;;;;;21342292;27;20511;-60
2021/10/12 19:16:48;;;;;;;18.40;10.02;;;;;;;;;;21340309;27;20043;-60
2021/10/12 19:26:50;;;;;;;13.85;9.23;;;;;;;;;;21340461;27;20046;-60
2021/10/12 19:36:52;;;;;;;17.50;10.65;;;;;;;;;;21340693;27;20054;-58
2021/10/12 19:46:53;;;;;;;14.65;11.05;;;;;;;;;;21339454;27;20124;-60
2021/10/12 19:56:54;;;;;;;13.50;8.38;;;;;;;;;;21338276;27;20053;-60
2021/10/12 20:06:55;;;;;;;14.65;7.60;;;;;;;;;;21337378;27;20372;-60
2021/10/12 20:16:57;;;;;;;12.88;7.25;;;;;;;;;;21337194;27;20043;-59
2021/10/12 20:26:58;;;;;;;12.77;8.20;;;;;;;;;;21335516;27;20050;-60
2021/10/12 20:36:59;;;;;;;10.10;6.38;;;;;;;;;;21316584;27;20103;-60
2021/10/12 20:47:02;;;;;;;7.93;6.63;;;;;;;;;;21315840;27;20061;-60
2021/10/12 20:57:04;;;;;;;10.68;6.30;;;;;;;;;;21334569;27;20054;-59
2021/10/12 21:07:06;;;;;;;8.63;6.22;;;;;;;;;;21335758;27;20050;-60
2021/10/12 21:17:08;;;;;;;9.82;7.28;;;;;;;;;;21334317;27;20521;-60
2021/10/12 21:27:11;;;;;;;9.38;5.95;;;;;;;;;;21316296;27;20111;-59
2021/10/12 21:37:14;;;;;;;12.00;5.45;;;;;;;;;;21343006;27;20039;-60
2021/10/12 21:47:16;;;;;;;6.65;4.88;;;;;;;;;;21350748;27;20455;-60
2021/10/12 21:57:18;;;;;;;5.97;3.90;;;;;;;;;;21350741;27;20558;-60
2021/10/12 22:07:20;;;;;;;7.35;3.40;;;;;;;;;;21349335;27;20125;-61
2021/10/12 22:17:22;;;;;;;4.28;2.53;;;;;;;;;;21348283;27;20479;-60
2021/10/12 22:27:24;;;;;;;5.00;2.05;;;;;;;;;;21346860;27;20130;-60
2021/10/12 22:37:26;;;;;;;4.90;2.33;;;;;;;;;;21346478;27;20045;-60
2021/10/12 22:47:28;;;;;;;4.40;2.33;;;;;;;;;;21344024;27;20054;-60
2021/10/12 22:57:30;;;;;;;3.17;2.13;;;;;;;;;;21345312;27;20051;-60
2021/10/12 23:07:32;;;;;;;3.70;2.05;;;;;;;;;;21344766;27;20057;-60
2021/10/12 23:17:34;;;;;;;2.22;1.63;;;;;;;;;;21343754;27;20126;-61
2021/10/12 23:27:37;;;;;;;3.35;1.70;;;;;;;;;;21342667;27;20134;-60
2021/10/12 23:37:39;;;;;;;2.73;1.47;;;;;;;;;;21341536;27;20049;-60
2021/10/12 23:47:41;;;;;;;3.53;2.42;;;;;;;;;;21341069;27;20096;-61
2021/10/12 23:57:43;;;;;;;3.13;1.58;;;;;;;;;;21331482;27;20133;-61
